createdAt,value
2018-02-18T00:00:43.141Z,4.2
2018-02-18T00:01:42.232Z,4.3
2018-02-18T00:02:41.782Z,4.3
2018-02-18T00:03:39.904Z,4.2
2018-02-18T00:04:40.561Z,4.2
2018-02-18T00:05:40.299Z,4.2
2018-02-18T00:06:40.244Z,4.2
2018-02-18T00:07:46.442Z,4.1
2018-02-18T00:08:43.430Z,4.0
2018-02-18T00:09:39.961Z,4.3
2018-02-18T00:10:40.398Z,4.4
2018-02-18T00:11:40.465Z,4.1
2018-02-18T00:12:43.134Z,4.2
2018-02-18T00:13:41.374Z,4.3
2018-02-18T00:14:44.132Z,4.3
2018-02-18T00:15:40.532Z,4.4
2018-02-18T00:16:39.492Z,4.2
2018-02-18T00:17:39.715Z,4.3
2018-02-18T00:18:40.824Z,4.1
2018-02-18T00:19:41.310Z,4.2
2018-02-18T00:20:40.363Z,4.3
2018-02-18T00:21:45.401Z,3.9
2018-02-18T00:22:49.317Z,4.2
2018-02-18T00:23:41.955Z,4.2
2018-02-18T00:24:46.376Z,4.4
2018-02-18T00:25:40.903Z,4.1
2018-02-18T00:26:41.698Z,4.3
2018-02-18T00:27:39.142Z,4.1
2018-02-18T00:28:39.862Z,4.2
2018-02-18T00:29:39.298Z,4.2
2018-02-18T00:30:39.156Z,4.4
2018-02-18T00:31:39.346Z,4.2
2018-02-18T00:32:39.312Z,4.2
2018-02-18T00:33:39.330Z,4.3
2018-02-18T00:34:39.195Z,4.3
2018-02-18T00:35:39.422Z,4.0
2018-02-18T00:36:39.571Z,4.1
2018-02-18T00:37:39.606Z,4.5
2018-02-18T00:38:39.390Z,4.2
2018-02-18T00:39:39.223Z,4.1
2018-02-18T00:40:39.372Z,4.1
2018-02-18T00:41:39.170Z,4.5
2018-02-18T00:42:39.261Z,4.1
2018-02-18T00:43:39.201Z,4.3
2018-02-18T00:44:39.336Z,4.4
2018-02-18T00:45:39.172Z,4.3
2018-02-18T00:46:39.535Z,4.2
2018-02-18T00:47:39.251Z,4.2
2018-02-18T00:48:39.390Z,4.2
2018-02-18T00:49:39.356Z,4.2
2018-02-18T00:50:39.438Z,4.3
2018-02-18T00:51:39.405Z,3.9
2018-02-18T00:52:39.137Z,4.2
2018-02-18T00:53:39.212Z,4.2
2018-02-18T00:54:39.177Z,4.2
2018-02-18T00:55:39.970Z,4.3
2018-02-18T00:56:40.548Z,4.3
2018-02-18T00:57:41.086Z,4.4
2018-02-18T00:58:39.799Z,4.1
2018-02-18T00:59:39.805Z,4.2
2018-02-18T01:00:40.074Z,4.3
2018-02-18T01:01:42.160Z,4.3
2018-02-18T01:02:41.139Z,4.4
2018-02-18T01:03:39.703Z,4.3
2018-02-18T01:04:39.738Z,4.4
2018-02-18T01:05:39.234Z,4.2
2018-02-18T01:06:39.414Z,4.2
2018-02-18T01:07:40.025Z,4.3
2018-02-18T01:08:40.702Z,4.1
2018-02-18T01:09:39.998Z,4.2
2018-02-18T01:10:39.390Z,4.4
2018-02-18T01:11:39.356Z,4.3
2018-02-18T01:12:39.814Z,4.5
2018-02-18T01:13:41.412Z,4.2
2018-02-18T01:14:39.244Z,4.5
2018-02-18T01:15:40.934Z,4.4
2018-02-18T01:16:42.244Z,4.2
2018-02-18T01:17:40.383Z,4.4
2018-02-18T01:19:39.208Z,4.0
2018-02-18T01:20:40.729Z,4.3
2018-02-18T01:21:39.344Z,4.5
2018-02-18T01:22:39.322Z,4.3
2018-02-18T01:23:39.218Z,4.1
2018-02-18T01:24:39.392Z,4.4
2018-02-18T01:25:39.440Z,4.5
2018-02-18T01:26:39.256Z,4.4
2018-02-18T01:27:40.844Z,4.3
2018-02-18T01:28:39.341Z,4.1
2018-02-18T01:29:40.087Z,4.4
2018-02-18T01:30:41.916Z,4.1
2018-02-18T01:31:40.661Z,4.5
2018-02-18T01:32:39.321Z,4.1
2018-02-18T01:33:39.921Z,4.2
2018-02-18T01:34:39.442Z,4.0
2018-02-18T01:35:39.460Z,4.0
2018-02-18T01:37:39.271Z,3.8
2018-02-18T01:38:39.666Z,3.8
2018-02-18T01:39:39.587Z,4.0
2018-02-18T01:40:39.460Z,4.0
2018-02-18T01:41:39.353Z,4.0
2018-02-18T01:42:40.176Z,4.2
2018-02-18T01:43:39.485Z,3.6
2018-02-18T01:44:39.343Z,3.7
2018-02-18T01:45:39.261Z,3.5
2018-02-18T01:46:40.066Z,3.7
2018-02-18T01:47:39.323Z,3.6
2018-02-18T01:48:40.309Z,3.7
2018-02-18T01:49:39.328Z,3.7
2018-02-18T01:50:39.453Z,3.8
2018-02-18T01:51:39.286Z,3.6
2018-02-18T01:52:40.125Z,3.6
2018-02-18T01:53:39.410Z,3.6
2018-02-18T01:54:39.386Z,3.8
2018-02-18T01:55:39.475Z,4.0
2018-02-18T01:57:39.281Z,3.5
2018-02-18T01:58:39.291Z,3.5
2018-02-18T01:59:39.340Z,3.4
2018-02-18T02:00:39.452Z,3.6
2018-02-18T02:01:39.658Z,3.5
2018-02-18T02:02:39.443Z,3.5
2018-02-18T02:03:39.267Z,3.5
2018-02-18T02:04:39.540Z,3.3
2018-02-18T02:05:39.450Z,3.3
2018-02-18T02:06:39.904Z,3.3
2018-02-18T02:07:39.273Z,3.5
2018-02-18T02:08:39.296Z,3.5
2018-02-18T02:09:39.468Z,3.2
2018-02-18T02:10:39.466Z,3.3
2018-02-18T02:11:39.503Z,3.5
2018-02-18T02:12:39.628Z,3.1
2018-02-18T02:13:39.658Z,3.3
2018-02-18T02:14:39.302Z,3.1
2018-02-18T02:15:39.264Z,3.2
2018-02-18T02:16:42.952Z,3.4
2018-02-18T02:17:39.285Z,3.1
2018-02-18T02:18:39.256Z,3.2
2018-02-18T02:19:39.424Z,3.2
2018-02-18T02:20:39.362Z,3.5
2018-02-18T02:21:39.668Z,3.2
2018-02-18T02:22:39.442Z,3.5
2018-02-18T02:23:39.351Z,3.3
2018-02-18T02:24:39.375Z,3.4
2018-02-18T02:25:39.548Z,3.7
2018-02-18T02:26:39.490Z,3.5
2018-02-18T02:27:39.326Z,3.5
2018-02-18T02:28:39.498Z,3.5
2018-02-18T02:29:39.958Z,3.6
2018-02-18T02:30:39.566Z,3.6
2018-02-18T02:31:40.529Z,3.5
2018-02-18T02:32:39.717Z,3.4
2018-02-18T02:33:39.345Z,3.3
2018-02-18T02:34:39.506Z,3.5
2018-02-18T02:35:39.574Z,3.4
2018-02-18T02:36:39.317Z,3.3
2018-02-18T02:37:39.549Z,3.5
2018-02-18T02:39:39.354Z,3.2
2018-02-18T02:40:39.349Z,3.5
2018-02-18T02:41:39.575Z,3.6
2018-02-18T02:42:39.515Z,3.4
2018-02-18T02:43:39.693Z,3.4
2018-02-18T02:44:39.407Z,3.8
2018-02-18T02:45:39.440Z,3.5
2018-02-18T02:46:39.576Z,3.5
2018-02-18T02:47:39.561Z,3.5
2018-02-18T02:48:39.534Z,3.8
2018-02-18T02:49:39.384Z,3.8
2018-02-18T02:50:39.572Z,3.7
2018-02-18T02:51:39.544Z,3.8
2018-02-18T02:52:39.341Z,3.9
2018-02-18T02:53:39.540Z,3.6
2018-02-18T02:54:39.543Z,3.7
2018-02-18T02:55:40.157Z,3.5
2018-02-18T02:56:39.569Z,3.7
2018-02-18T02:57:39.448Z,3.6
2018-02-18T02:58:39.565Z,3.6
2018-02-18T02:59:39.573Z,3.7
2018-02-18T03:00:39.560Z,3.9
2018-02-18T03:01:40.205Z,3.7
2018-02-18T03:02:39.413Z,3.8
2018-02-18T03:03:39.581Z,3.7
2018-02-18T03:04:39.452Z,3.5
2018-02-18T03:05:39.639Z,3.9
2018-02-18T03:06:39.390Z,3.4
2018-02-18T03:07:39.421Z,3.5
2018-02-18T03:08:39.637Z,3.4
2018-02-18T03:09:39.698Z,3.5
2018-02-18T03:10:39.405Z,3.9
2018-02-18T03:12:39.376Z,3.5
2018-02-18T03:13:39.603Z,3.7
2018-02-18T03:14:39.540Z,3.8
2018-02-18T03:15:39.529Z,3.6
2018-02-18T03:16:39.683Z,3.5
2018-02-18T03:17:39.349Z,3.7
2018-02-18T03:18:39.544Z,3.8
2018-02-18T03:19:39.365Z,3.7
2018-02-18T03:20:39.324Z,3.6
2018-02-18T03:21:39.409Z,3.8
2018-02-18T03:22:39.509Z,3.4
2018-02-18T03:23:39.397Z,3.6
2018-02-18T03:24:39.594Z,3.6
2018-02-18T03:25:39.623Z,3.8
2018-02-18T03:26:39.566Z,3.8
2018-02-18T03:27:39.430Z,3.7
2018-02-18T03:28:39.631Z,4.0
2018-02-18T03:29:39.433Z,3.6
2018-02-18T03:30:40.762Z,3.8
2018-02-18T03:31:39.411Z,3.8
2018-02-18T03:32:39.597Z,3.7
2018-02-18T03:33:39.596Z,3.9
2018-02-18T03:34:39.630Z,3.7
2018-02-18T03:35:40.102Z,3.8
2018-02-18T03:36:39.558Z,3.7
2018-02-18T03:40:39.615Z,3.8
2018-02-18T03:41:39.665Z,4.0
2018-02-18T03:42:39.447Z,4.0
2018-02-18T03:43:39.671Z,3.7
2018-02-18T03:44:39.426Z,4.0
2018-02-18T03:45:39.572Z,3.9
2018-02-18T03:46:39.734Z,4.0
2018-02-18T03:48:39.461Z,4.2
2018-02-18T03:49:39.673Z,4.0
2018-02-18T03:50:39.630Z,4.1
2018-02-18T03:51:39.699Z,4.0
2018-02-18T03:53:39.456Z,3.9
2018-02-18T03:54:39.624Z,3.9
2018-02-18T03:55:39.566Z,3.7
2018-02-18T03:56:39.457Z,4.0
2018-02-18T03:57:39.636Z,4.1
2018-02-18T03:58:39.619Z,4.1
2018-02-18T03:59:39.494Z,4.0
2018-02-18T04:00:39.635Z,3.8
2018-02-18T04:01:40.140Z,3.9
2018-02-18T04:02:39.445Z,4.0
2018-02-18T04:03:39.545Z,3.8
2018-02-18T04:04:39.700Z,3.8
2018-02-18T04:05:39.656Z,3.8
2018-02-18T04:06:48.107Z,3.7
2018-02-18T04:07:41.630Z,4.0
2018-02-18T04:08:41.829Z,4.3
2018-02-18T04:09:41.821Z,4.0
2018-02-18T04:10:43.263Z,4.3
2018-02-18T04:11:44.509Z,4.0
2018-02-18T04:12:40.615Z,4.1
2018-02-18T04:15:40.906Z,4.1
2018-02-18T04:16:40.484Z,4.1
2018-02-18T04:17:41.809Z,4.0
2018-02-18T04:18:41.680Z,4.1
2018-02-18T04:19:41.945Z,4.1
2018-02-18T04:20:41.794Z,4.2
2018-02-18T04:21:46.364Z,3.9
2018-02-18T04:22:42.363Z,3.9
2018-02-18T04:23:52.233Z,3.9
2018-02-18T04:24:41.592Z,4.1
2018-02-18T04:25:41.039Z,4.0
2018-02-18T04:26:41.629Z,4.2
2018-02-18T04:27:39.779Z,4.2
2018-02-18T04:28:41.503Z,4.2
2018-02-18T04:29:41.587Z,4.1
2018-02-18T04:30:41.380Z,4.3
2018-02-18T04:31:40.474Z,4.1
2018-02-18T04:32:42.713Z,4.2
2018-02-18T04:33:42.666Z,4.1
2018-02-18T04:34:43.685Z,4.0
2018-02-18T04:35:41.589Z,3.7
2018-02-18T04:36:45.262Z,4.2
2018-02-18T04:37:45.451Z,4.1
2018-02-18T04:38:43.152Z,4.1
2018-02-18T04:39:43.132Z,4.2
2018-02-18T04:40:41.321Z,3.8
2018-02-18T04:41:41.385Z,4.1
2018-02-18T04:42:41.872Z,4.2
2018-02-18T04:43:41.840Z,4.0
2018-02-18T04:44:44.536Z,3.9
2018-02-18T04:45:40.745Z,3.9
2018-02-18T04:46:44.103Z,3.9
2018-02-18T04:47:39.785Z,4.1
2018-02-18T04:48:46.558Z,4.0
2018-02-18T04:49:45.496Z,4.0
2018-02-18T04:50:41.161Z,4.2
2018-02-18T04:51:46.770Z,4.0
2018-02-18T04:52:42.045Z,3.8
2018-02-18T04:53:43.069Z,4.2
2018-02-18T04:55:44.875Z,4.1
2018-02-18T04:56:41.565Z,4.1
2018-02-18T04:57:45.372Z,3.9
2018-02-18T04:58:48.558Z,3.8
2018-02-18T04:59:41.019Z,4.4
2018-02-18T05:00:40.750Z,3.8
2018-02-18T05:01:45.034Z,3.8
2018-02-18T05:02:39.930Z,3.6
2018-02-18T05:03:45.441Z,4.0
2018-02-18T05:04:46.295Z,4.2
2018-02-18T05:05:39.650Z,4.0
2018-02-18T05:06:39.795Z,4.0
2018-02-18T05:07:39.809Z,4.1
2018-02-18T05:08:39.682Z,3.9
2018-02-18T05:09:39.660Z,3.9
2018-02-18T05:11:39.795Z,3.9
2018-02-18T05:12:39.774Z,3.9
2018-02-18T05:13:39.812Z,3.7
2018-02-18T05:14:39.861Z,4.0
2018-02-18T05:15:39.652Z,3.7
2018-02-18T05:16:40.244Z,3.9
2018-02-18T05:17:39.660Z,4.2
2018-02-18T05:18:39.933Z,4.0
2018-02-18T05:19:39.818Z,3.9
2018-02-18T05:20:39.835Z,3.9
2018-02-18T05:21:39.862Z,3.9
2018-02-18T05:22:39.873Z,3.7
2018-02-18T05:23:39.859Z,3.7
2018-02-18T05:24:39.689Z,3.8
2018-02-18T05:25:39.828Z,3.7
2018-02-18T05:26:39.865Z,3.8
2018-02-18T05:27:40.201Z,3.8
2018-02-18T05:28:39.935Z,3.8
2018-02-18T05:29:39.887Z,3.9
2018-02-18T05:30:39.867Z,3.7
2018-02-18T05:31:40.270Z,3.6
2018-02-18T05:32:39.926Z,3.5
2018-02-18T05:33:39.762Z,3.8
2018-02-18T05:34:39.701Z,3.6
2018-02-18T05:35:39.658Z,3.5
2018-02-18T05:36:39.721Z,3.2
2018-02-18T05:37:39.708Z,3.8
2018-02-18T05:38:39.737Z,3.6
2018-02-18T05:40:39.963Z,3.6
2018-02-18T05:41:39.696Z,3.7
2018-02-18T05:42:39.807Z,3.6
2018-02-18T05:43:39.932Z,3.6
2018-02-18T05:44:39.886Z,3.6
2018-02-18T05:45:39.694Z,3.6
2018-02-18T05:46:39.990Z,3.9
2018-02-18T05:47:39.662Z,3.7
2018-02-18T05:48:39.803Z,4.0
2018-02-18T05:49:39.654Z,3.6
2018-02-18T05:50:39.886Z,3.5
2018-02-18T05:51:39.690Z,3.4
2018-02-18T05:52:39.730Z,3.8
2018-02-18T05:53:39.893Z,3.6
2018-02-18T05:54:39.936Z,3.7
2018-02-18T05:55:39.709Z,3.7
2018-02-18T05:56:39.887Z,3.6
2018-02-18T05:57:39.877Z,3.3
2018-02-18T05:58:39.780Z,3.6
2018-02-18T05:59:39.767Z,3.5
2018-02-18T06:00:40.407Z,3.3
2018-02-18T06:01:39.862Z,3.6
2018-02-18T06:02:39.916Z,3.6
2018-02-18T06:03:39.872Z,3.5
2018-02-18T06:04:39.860Z,3.7
2018-02-18T06:05:39.775Z,3.6
2018-02-18T06:06:40.016Z,3.3
2018-02-18T06:07:39.766Z,3.5
2018-02-18T06:08:39.967Z,3.4
2018-02-18T06:09:41.065Z,3.6
2018-02-18T06:10:39.960Z,3.4
2018-02-18T06:11:39.732Z,3.5
2018-02-18T06:12:39.861Z,3.6
2018-02-18T06:13:39.739Z,3.4
2018-02-18T06:14:39.987Z,3.3
2018-02-18T06:15:39.967Z,3.3
2018-02-18T06:16:39.962Z,3.2
2018-02-18T06:17:39.781Z,3.5
2018-02-18T06:18:40.503Z,3.2
2018-02-18T06:19:39.971Z,3.5
2018-02-18T06:20:40.084Z,3.1
2018-02-18T06:21:40.075Z,3.4
2018-02-18T06:22:39.821Z,3.4
2018-02-18T06:23:39.761Z,3.3
2018-02-18T06:24:39.839Z,3.2
2018-02-18T06:25:39.751Z,3.4
2018-02-18T06:26:39.999Z,3.3
2018-02-18T06:27:39.945Z,3.2
2018-02-18T06:28:40.019Z,3.2
2018-02-18T06:29:39.919Z,3.4
2018-02-18T06:31:39.776Z,3.5
2018-02-18T06:32:40.059Z,3.5
2018-02-18T06:33:40.374Z,3.2
2018-02-18T06:34:39.761Z,3.4
2018-02-18T06:35:39.814Z,3.4
2018-02-18T06:36:39.939Z,3.5
2018-02-18T06:37:39.721Z,3.4
2018-02-18T06:38:39.916Z,3.5
2018-02-18T06:41:40.512Z,3.2
2018-02-18T06:42:39.846Z,3.3
2018-02-18T06:43:39.981Z,3.4
2018-02-18T06:44:39.955Z,3.5
2018-02-18T06:45:39.964Z,3.3
2018-02-18T06:46:40.020Z,3.5
2018-02-18T06:47:40.052Z,3.5
2018-02-18T06:48:39.778Z,3.3
2018-02-18T06:49:40.781Z,3.6
2018-02-18T06:50:40.059Z,3.3
2018-02-18T06:51:39.818Z,3.4
2018-02-18T06:52:39.949Z,3.2
2018-02-18T06:53:40.561Z,3.5
2018-02-18T06:54:39.969Z,3.4
2018-02-18T06:57:40.026Z,3.1
2018-02-18T06:58:39.982Z,3.4
2018-02-18T06:59:40.413Z,3.1
2018-02-18T07:00:39.974Z,3.3
2018-02-18T07:01:40.199Z,3.4
2018-02-18T07:02:40.391Z,3.2
2018-02-18T07:03:39.832Z,3.2
2018-02-18T07:04:39.980Z,3.3
2018-02-18T07:05:40.037Z,3.2
2018-02-18T07:06:39.842Z,2.9
2018-02-18T07:07:39.822Z,3.3
2018-02-18T07:08:39.901Z,3.3
2018-02-18T07:09:40.084Z,3.2
2018-02-18T07:10:39.876Z,3.4
2018-02-18T07:11:39.883Z,3.4
2018-02-18T07:12:39.824Z,3.1
2018-02-18T07:13:39.855Z,3.6
2018-02-18T07:14:41.276Z,3.5
2018-02-18T07:15:40.585Z,3.5
2018-02-18T07:16:40.103Z,3.4
2018-02-18T07:17:40.583Z,3.5
2018-02-18T07:18:40.087Z,3.4
2018-02-18T07:19:39.837Z,3.2
2018-02-18T07:20:39.856Z,3.5
2018-02-18T07:21:40.099Z,3.2
2018-02-18T07:22:40.061Z,3.2
2018-02-18T07:23:40.002Z,3.2
2018-02-18T07:24:41.111Z,3.1
2018-02-18T07:25:40.098Z,3.5
2018-02-18T07:26:39.931Z,3.2
2018-02-18T07:27:39.884Z,3.3
2018-02-18T07:28:40.049Z,3.4
2018-02-18T07:29:39.925Z,3.2
2018-02-18T07:30:39.980Z,3.3
2018-02-18T07:31:41.256Z,3.2
2018-02-18T07:32:40.032Z,3.2
2018-02-18T07:33:39.869Z,3.3
2018-02-18T07:34:40.065Z,3.2
2018-02-18T07:36:49.996Z,3.1
2018-02-18T07:38:40.050Z,3.0
2018-02-18T07:39:40.097Z,3.0
2018-02-18T07:40:39.922Z,3.1
2018-02-18T07:41:39.919Z,2.8
2018-02-18T07:42:40.125Z,3.1
2018-02-18T07:43:39.935Z,2.8
2018-02-18T07:44:40.158Z,2.8
2018-02-18T07:45:40.052Z,3.0
2018-02-18T07:46:41.058Z,3.2
2018-02-18T07:47:40.165Z,2.9
2018-02-18T07:48:39.890Z,2.9
2018-02-18T07:49:39.982Z,2.9
2018-02-18T07:50:39.997Z,2.9
2018-02-18T07:51:40.181Z,2.8
2018-02-18T07:52:39.932Z,3.0
2018-02-18T07:53:40.101Z,3.1
2018-02-18T07:54:39.956Z,3.0
2018-02-18T07:55:40.123Z,2.8
2018-02-18T07:56:40.122Z,2.8
2018-02-18T07:57:40.132Z,3.0
2018-02-18T07:58:40.117Z,3.0
2018-02-18T07:59:39.965Z,3.1
2018-02-18T08:01:39.998Z,2.8
2018-02-18T08:02:40.150Z,2.7
2018-02-18T08:03:40.184Z,2.8
2018-02-18T08:04:39.935Z,3.0
2018-02-18T08:05:40.173Z,3.0
2018-02-18T08:06:39.993Z,3.2
2018-02-18T08:07:39.998Z,3.0
2018-02-18T08:08:40.173Z,6.6
2018-02-18T08:09:42.056Z,10.1
2018-02-18T08:10:39.949Z,11.4
2018-02-18T08:11:40.184Z,12.0
2018-02-18T08:12:40.890Z,10.7
2018-02-18T08:13:40.233Z,9.2
2018-02-18T08:14:40.001Z,8.6
2018-02-18T08:15:39.988Z,8.1
2018-02-18T08:16:42.336Z,7.8
2018-02-18T08:17:40.356Z,7.8
2018-02-18T08:18:40.261Z,7.7
2018-02-18T08:19:40.274Z,7.4
2018-02-18T08:20:40.227Z,7.1
2018-02-18T08:21:40.005Z,7.1
2018-02-18T08:22:40.191Z,7.3
2018-02-18T08:23:40.240Z,6.7
2018-02-18T08:24:39.992Z,6.8
2018-02-18T08:25:41.423Z,6.5
2018-02-18T08:26:40.390Z,6.2
2018-02-18T08:27:40.233Z,6.4
2018-02-18T08:28:40.232Z,6.1
2018-02-18T08:29:40.166Z,6.0
2018-02-18T08:30:40.875Z,6.0
2018-02-18T08:31:40.279Z,6.2
2018-02-18T08:35:40.166Z,5.7
2018-02-18T08:39:40.196Z,5.7
2018-02-18T08:41:40.184Z,5.8
2018-02-18T08:42:41.458Z,5.8
2018-02-18T08:43:40.139Z,5.9
2018-02-18T08:45:06.887Z,5.7
2018-02-18T08:45:40.315Z,5.5
2018-02-18T08:46:48.230Z,5.3
2018-02-18T08:47:40.473Z,5.6
2018-02-18T08:48:40.408Z,5.3
2018-02-18T08:49:40.913Z,5.4
2018-02-18T08:50:41.133Z,5.5
2018-02-18T08:51:40.359Z,5.0
2018-02-18T08:52:40.467Z,5.3
2018-02-18T08:54:40.552Z,5.7
2018-02-18T08:55:43.522Z,5.7
2018-02-18T08:56:42.529Z,5.5
2018-02-18T08:57:40.789Z,5.3
2018-02-18T08:58:40.825Z,5.8
2018-02-18T09:04:02.753Z,5.7
2018-02-18T09:04:31.346Z,5.8
2018-02-18T09:05:32.993Z,5.7
2018-02-18T09:06:38.927Z,5.7
2018-02-18T09:07:35.160Z,5.7
2018-02-18T09:08:32.665Z,5.4
2018-02-18T09:09:32.597Z,5.9
2018-02-18T09:10:32.410Z,5.9
2018-02-18T09:11:32.463Z,5.7
2018-02-18T09:12:32.617Z,5.5
2018-02-18T09:13:33.164Z,5.8
2018-02-18T09:14:33.783Z,5.7
2018-02-18T09:16:32.760Z,5.8
2018-02-18T09:17:33.189Z,5.8
2018-02-18T09:18:32.860Z,5.8
2018-02-18T09:19:33.198Z,5.8
2018-02-18T09:20:33.351Z,5.6
2018-02-18T09:21:34.514Z,5.9
2018-02-18T09:22:33.103Z,5.8
2018-02-18T09:24:42.648Z,5.7
2018-02-18T09:25:37.832Z,5.8
2018-02-18T09:26:33.501Z,5.6
2018-02-18T09:27:38.322Z,5.8
2018-02-18T09:28:37.392Z,5.6
2018-02-18T09:29:33.260Z,5.8
2018-02-18T09:30:34.077Z,5.7
2018-02-18T09:32:32.756Z,5.7
2018-02-18T09:33:32.344Z,5.7
2018-02-18T09:34:32.705Z,5.4
2018-02-18T09:35:32.735Z,5.8
2018-02-18T09:36:32.994Z,5.6
2018-02-18T09:37:32.640Z,5.4
2018-02-18T09:38:32.422Z,5.8
2018-02-18T09:39:41.944Z,5.3
2018-02-18T09:40:32.694Z,5.7
2018-02-18T09:41:32.586Z,5.3
2018-02-18T09:42:32.364Z,5.4
2018-02-18T09:43:32.531Z,5.4
2018-02-18T09:44:32.461Z,5.3
2018-02-18T09:45:35.881Z,5.5
2018-02-18T09:47:32.809Z,5.1
2018-02-18T09:48:32.743Z,5.4
2018-02-18T09:50:25.377Z,5.2
2018-02-18T09:50:40.049Z,5.2
2018-02-18T09:52:17.449Z,5.4
2018-02-18T09:52:53.045Z,5.2
2018-02-18T09:55:37.162Z,5.3
2018-02-18T09:56:37.882Z,5.1
2018-02-18T09:57:39.503Z,5.2
2018-02-18T09:58:36.237Z,4.9
2018-02-18T10:01:50.797Z,5.3
2018-02-18T10:02:49.131Z,5.0
2018-02-18T10:03:49.047Z,5.3
2018-02-18T10:04:51.211Z,5.3
2018-02-18T10:05:52.720Z,5.1
2018-02-18T10:06:50.940Z,5.3
2018-02-18T10:07:49.132Z,5.0
2018-02-18T10:08:49.080Z,5.2
2018-02-18T10:09:49.331Z,5.0
2018-02-18T10:11:11.964Z,5.3
2018-02-18T10:11:57.857Z,4.9
2018-02-18T10:12:49.650Z,4.9
2018-02-18T10:13:51.002Z,5.4
2018-02-18T10:14:54.060Z,5.5
2018-02-18T10:15:51.107Z,5.5
2018-02-18T10:16:51.841Z,5.3
2018-02-18T10:17:49.125Z,5.4
2018-02-18T10:18:52.287Z,5.6
2018-02-18T10:19:49.196Z,5.6
2018-02-18T10:20:50.411Z,5.6
2018-02-18T10:21:49.311Z,5.6
2018-02-18T10:22:57.744Z,5.5
2018-02-18T10:23:52.245Z,5.7
2018-02-18T10:24:49.847Z,5.2
2018-02-18T10:26:52.023Z,5.9
2018-02-18T10:27:50.003Z,5.5
2018-02-18T10:29:50.078Z,5.4
2018-02-18T10:30:51.135Z,5.5
2018-02-18T10:31:52.191Z,5.7
2018-02-18T10:32:49.795Z,5.7
2018-02-18T10:33:49.161Z,5.9
2018-02-18T10:35:51.003Z,5.6
2018-02-18T10:37:17.964Z,5.4
2018-02-18T10:37:53.052Z,5.9
2018-02-18T10:38:52.097Z,5.6
2018-02-18T10:39:50.058Z,5.7
2018-02-18T10:40:53.708Z,5.6
2018-02-18T10:41:49.539Z,5.1
2018-02-18T10:42:49.078Z,5.5
2018-02-18T10:43:49.553Z,5.5
2018-02-18T10:44:49.809Z,5.2
2018-02-18T10:45:52.009Z,5.5
2018-02-18T10:46:50.920Z,5.2
2018-02-18T10:49:04.388Z,5.4
2018-02-18T10:50:02.064Z,5.6
2018-02-18T10:51:04.634Z,5.3
2018-02-18T10:52:02.349Z,5.2
2018-02-18T10:53:02.988Z,5.6
2018-02-18T10:54:02.226Z,5.5
2018-02-18T10:55:02.467Z,5.3
2018-02-18T10:56:02.808Z,5.3
2018-02-18T10:57:02.287Z,5.3
2018-02-18T10:58:02.227Z,5.4
2018-02-18T10:59:02.275Z,5.3
2018-02-18T11:00:02.443Z,5.1
2018-02-18T11:01:02.953Z,5.2
2018-02-18T11:03:03.161Z,5.4
2018-02-18T11:04:03.150Z,5.5
2018-02-18T11:05:02.358Z,5.4
2018-02-18T11:06:02.241Z,5.3
2018-02-18T11:07:03.024Z,5.2
2018-02-18T11:08:03.283Z,5.4
2018-02-18T11:10:02.982Z,5.1
2018-02-18T11:11:02.445Z,5.7
2018-02-18T11:12:02.488Z,5.4
2018-02-18T11:13:02.487Z,5.3
2018-02-18T11:14:02.614Z,5.3
2018-02-18T11:15:02.290Z,5.4
2018-02-18T11:16:02.255Z,5.4
2018-02-18T11:18:02.266Z,5.5
2018-02-18T11:19:03.756Z,5.8
2018-02-18T11:20:02.406Z,5.7
2018-02-18T11:21:02.511Z,5.4
2018-02-18T11:22:02.459Z,5.5
2018-02-18T11:23:02.650Z,5.8
2018-02-18T11:24:03.759Z,5.7
2018-02-18T11:25:03.496Z,5.3
2018-02-18T11:26:02.124Z,5.6
2018-02-18T11:28:02.297Z,5.5
2018-02-18T11:29:04.649Z,5.5
2018-02-18T11:30:05.882Z,5.2
2018-02-18T11:31:05.420Z,5.5
2018-02-18T11:32:02.325Z,5.9
2018-02-18T11:33:02.085Z,5.2
2018-02-18T11:34:04.654Z,5.3
2018-02-18T11:35:02.176Z,5.1
2018-02-18T11:36:02.983Z,5.4
2018-02-18T11:37:02.355Z,5.6
2018-02-18T11:38:06.006Z,5.4
2018-02-18T11:40:02.296Z,5.8
2018-02-18T11:42:02.259Z,5.2
2018-02-18T11:43:02.586Z,5.4
2018-02-18T11:44:03.670Z,5.6
2018-02-18T11:47:06.954Z,5.4
2018-02-18T11:49:07.120Z,5.6
2018-02-18T11:50:06.794Z,5.9
2018-02-18T11:51:07.224Z,5.6
2018-02-18T11:53:06.996Z,5.6
2018-02-18T11:55:07.954Z,5.3
2018-02-18T11:57:07.179Z,5.4
2018-02-18T11:58:10.763Z,5.2
2018-02-18T11:59:10.068Z,5.4
2018-02-18T12:00:07.881Z,5.4
2018-02-18T12:01:07.010Z,5.2
2018-02-18T12:02:06.978Z,5.2
2018-02-18T12:03:06.798Z,5.1
2018-02-18T12:05:07.328Z,5.4
2018-02-18T12:06:07.039Z,5.1
2018-02-18T12:07:06.864Z,5.3
2018-02-18T12:09:07.347Z,5.1
2018-02-18T12:11:07.059Z,5.7
2018-02-18T12:12:07.484Z,5.0
2018-02-18T12:13:07.084Z,5.3
2018-02-18T12:14:06.830Z,4.8
2018-02-18T12:15:08.683Z,5.3
2018-02-18T12:16:07.600Z,5.5
2018-02-18T12:17:10.100Z,5.0
2018-02-18T12:18:12.315Z,5.4
2018-02-18T12:19:12.511Z,5.4
2018-02-18T12:20:10.527Z,5.7
2018-02-18T12:21:14.507Z,5.8
2018-02-18T12:22:10.079Z,6.0
2018-02-18T12:23:07.202Z,5.7
2018-02-18T12:24:11.104Z,5.4
2018-02-18T12:25:13.385Z,5.6
2018-02-18T12:26:07.282Z,5.6
2018-02-18T12:27:06.998Z,5.5
2018-02-18T12:28:07.885Z,5.2
2018-02-18T12:29:07.140Z,5.5
2018-02-18T12:30:07.146Z,5.6
2018-02-18T12:31:06.916Z,5.9
2018-02-18T12:35:16.269Z,5.5
2018-02-18T12:35:27.776Z,5.5
2018-02-18T12:36:27.949Z,5.5
2018-02-18T12:37:27.909Z,5.2
2018-02-18T12:39:27.969Z,5.4
2018-02-18T12:40:27.716Z,5.5
2018-02-18T12:41:28.010Z,5.7
2018-02-18T12:42:27.792Z,5.4
2018-02-18T12:43:27.951Z,5.6
2018-02-18T12:44:27.799Z,5.2
2018-02-18T12:45:27.794Z,5.5
2018-02-18T12:46:29.049Z,5.5
2018-02-18T12:47:27.866Z,5.4
2018-02-18T12:48:28.064Z,5.4
2018-02-18T12:49:28.063Z,5.3
2018-02-18T12:50:27.985Z,5.6
2018-02-18T12:51:28.667Z,5.5
2018-02-18T12:52:28.534Z,5.7
2018-02-18T12:53:27.785Z,5.4
2018-02-18T12:54:27.810Z,5.6
2018-02-18T12:55:27.969Z,5.6
2018-02-18T12:56:27.832Z,5.3
2018-02-18T12:57:27.852Z,5.4
2018-02-18T12:58:28.049Z,5.5
2018-02-18T12:59:27.808Z,5.4
2018-02-18T13:00:27.746Z,5.7
2018-02-18T13:01:27.745Z,5.7
2018-02-18T13:02:28.139Z,5.5
2018-02-18T13:03:29.016Z,5.5
2018-02-18T13:04:28.948Z,5.3
2018-02-18T13:05:28.412Z,5.4
2018-02-18T13:06:27.866Z,5.1
2018-02-18T13:07:28.113Z,5.6
2018-02-18T13:08:28.868Z,5.4
2018-02-18T13:09:30.371Z,5.6
2018-02-18T13:10:34.350Z,5.6
2018-02-18T13:11:33.032Z,5.1
2018-02-18T13:12:34.409Z,5.5
2018-02-18T13:14:27.973Z,5.7
2018-02-18T13:16:27.875Z,5.4
2018-02-18T13:17:27.812Z,5.1
2018-02-18T13:18:30.723Z,5.8
2018-02-18T13:19:28.189Z,5.4
2018-02-18T13:20:29.227Z,5.6
2018-02-18T13:22:28.109Z,5.5
2018-02-18T13:23:27.844Z,5.3
2018-02-18T13:24:27.870Z,5.5
2018-02-18T13:25:28.861Z,5.3
2018-02-18T13:26:28.591Z,4.8
2018-02-18T13:28:28.256Z,5.5
2018-02-18T13:29:28.031Z,5.5
2018-02-18T13:30:29.980Z,5.9
2018-02-18T13:31:29.290Z,5.4
2018-02-18T13:32:28.387Z,5.2
2018-02-18T13:33:38.288Z,5.4
2018-02-18T13:34:28.759Z,5.4
2018-02-18T13:36:27.974Z,5.5
2018-02-18T13:37:28.053Z,5.3
2018-02-18T13:38:27.819Z,5.6
2018-02-18T13:39:28.037Z,5.1
2018-02-18T13:40:29.547Z,5.6
2018-02-18T13:41:28.663Z,5.5
2018-02-18T13:43:28.069Z,5.7
2018-02-18T13:44:27.905Z,5.3
2018-02-18T13:45:27.955Z,5.7
2018-02-18T13:46:28.139Z,5.8
2018-02-18T13:47:28.610Z,5.9
2018-02-18T13:48:27.893Z,5.5
2018-02-18T13:49:27.993Z,5.8
2018-02-18T13:50:27.932Z,5.7
2018-02-18T13:51:28.101Z,5.7
2018-02-18T13:52:28.110Z,5.8
2018-02-18T13:53:27.955Z,5.9
2018-02-18T13:54:27.951Z,5.7
2018-02-18T13:55:28.064Z,5.9
2018-02-18T13:56:28.085Z,6.0
2018-02-18T13:57:27.960Z,5.2
2018-02-18T14:00:28.561Z,5.9
2018-02-18T14:01:27.898Z,5.9
2018-02-18T14:02:28.025Z,6.1
2018-02-18T14:03:28.175Z,5.6
2018-02-18T14:04:27.907Z,5.8
2018-02-18T14:05:28.160Z,5.6
2018-02-18T14:06:27.896Z,6.0
2018-02-18T14:07:29.583Z,5.9
2018-02-18T14:10:28.042Z,5.9
2018-02-18T14:11:27.999Z,6.1
2018-02-18T14:12:28.009Z,6.1
2018-02-18T14:13:41.161Z,5.8
2018-02-18T14:14:27.864Z,5.8
2018-02-18T14:15:27.949Z,5.9
2018-02-18T14:17:29.886Z,5.8
2018-02-18T14:18:28.214Z,6.1
2018-02-18T14:19:28.169Z,6.0
2018-02-18T14:20:27.814Z,5.8
2018-02-18T14:21:28.087Z,6.0
2018-02-18T14:22:28.063Z,5.5
2018-02-18T14:23:27.961Z,5.9
2018-02-18T14:24:28.180Z,5.5
2018-02-18T14:25:28.075Z,5.8
2018-02-18T14:26:28.168Z,5.9
2018-02-18T14:28:28.162Z,5.8
2018-02-18T14:29:27.990Z,5.9
2018-02-18T14:31:27.886Z,6.0
2018-02-18T14:32:27.947Z,6.0
2018-02-18T14:33:28.553Z,5.8
2018-02-18T14:34:28.616Z,6.0
2018-02-18T14:35:28.067Z,5.8
2018-02-18T14:37:28.099Z,6.0
2018-02-18T14:38:28.429Z,6.0
2018-02-18T14:39:28.868Z,5.9
2018-02-18T14:40:28.093Z,6.1
2018-02-18T14:41:29.918Z,6.1
2018-02-18T14:42:28.194Z,6.2
2018-02-18T14:43:35.139Z,6.1
2018-02-18T14:44:28.082Z,6.5
2018-02-18T14:45:28.261Z,6.4
2018-02-18T14:46:29.506Z,6.1
2018-02-18T14:47:28.190Z,6.7
2018-02-18T14:48:28.229Z,6.1
2018-02-18T14:49:28.262Z,6.2
2018-02-18T14:50:28.167Z,6.1
2018-02-18T14:51:28.727Z,6.2
2018-02-18T14:53:28.212Z,6.2
2018-02-18T14:54:28.158Z,6.2
2018-02-18T14:55:35.294Z,6.3
2018-02-18T14:56:32.642Z,6.4
2018-02-18T14:57:32.699Z,6.4
2018-02-18T14:58:36.066Z,6.1
2018-02-18T14:59:31.720Z,6.2
2018-02-18T15:00:33.768Z,6.0
2018-02-18T15:01:33.522Z,6.5
2018-02-18T15:02:30.375Z,6.3
2018-02-18T15:03:31.184Z,6.5
2018-02-18T15:04:30.809Z,5.9
2018-02-18T15:05:31.925Z,6.4
2018-02-18T15:06:32.752Z,6.5